Time;durP1;ratioP1;P1;durP2;ratioP2;P2;SDS_P1;SDS_P2;PMS_P1;PMS_P2;Temp;Humidity;BMP_temperature;BMP_pressure;BME280_temperature;BME280_humidity;BME280_pressure;Samples;Min_cycle;Max_cycle;Signal;HPM_P1;HPM_P2
2022/01/24 00:00:59;;;;;;;0.10;0.10;;;2.80;99.90;;;;;;5051386;28;20112;-62
2022/01/24 00:03:26;;;;;;;0.55;0.55;;;2.60;99.90;;;;;;5051355;28;20022;-62
2022/01/24 00:05:51;;;;;;;0.40;0.40;;;2.50;99.90;;;;;;5051108;28;20039;-62
2022/01/24 00:08:17;;;;;;;0.10;0.10;;;2.40;99.90;;;;;;5050965;28;20025;-62
2022/01/24 00:10:47;;;;;;;0.93;0.90;;;2.40;99.90;;;;;;5052961;28;20037;-62
2022/01/24 00:16:15;;;;;;;;;;;2.50;99.90;;;;;;5054899;28;20401;-62
2022/01/24 00:26:58;;;;;;;0.40;0.40;;;2.20;99.90;;;;;;5054713;28;20492;-62
2022/01/24 00:29:26;;;;;;;0.10;0.10;;;2.20;99.90;;;;;;5054754;28;20037;-62
2022/01/24 00:31:53;;;;;;;0.10;0.10;;;2.20;99.90;;;;;;5054240;28;20045;-62
2022/01/24 00:34:19;;;;;;;0.10;0.10;;;2.20;99.90;;;;;;5054583;28;20033;-62
2022/01/24 00:36:47;;;;;;;0.10;0.10;;;2.10;99.90;;;;;;5054373;28;20044;-62
2022/01/24 00:39:13;;;;;;;0.10;0.10;;;2.10;99.90;;;;;;5036922;28;20148;-62
2022/01/24 00:42:01;;;;;;;0.17;0.17;;;2.00;99.90;;;;;;5053066;28;20080;-62
2022/01/24 00:46:56;;;;;;;0.10;0.10;;;1.70;99.90;;;;;;5053990;28;20111;-62
2022/01/24 00:54:44;;;;;;;0.45;0.45;;;1.60;99.90;;;;;;5053917;28;20045;-62
2022/01/24 00:57:11;;;;;;;0.40;0.40;;;1.70;99.90;;;;;;5053822;28;20028;-63
2022/01/24 00:59:38;;;;;;;0.28;0.28;;;1.60;99.90;;;;;;5054200;28;20025;-62
2022/01/24 01:02:06;;;;;;;0.10;0.10;;;1.60;99.90;;;;;;5053935;28;20113;-62
2022/01/24 01:04:45;;;;;;;0.00;0.00;;;1.70;99.90;;;;;;5054128;28;20032;-63
2022/01/24 01:07:11;;;;;;;0.20;0.20;;;1.80;99.90;;;;;;5052641;28;20041;-63
2022/01/24 01:21:00;;;;;;;2.20;1.02;;;2.10;99.90;;;;;;5053653;28;20045;-63
2022/01/24 01:23:21;;;;;;;0.10;0.10;;;2.20;99.90;;;;;;5052702;28;20065;-63
2022/01/24 01:25:48;;;;;;;0.00;0.00;;;2.20;99.90;;;;;;5053687;28;20072;-63
2022/01/24 01:28:15;;;;;;;0.10;0.10;;;2.20;99.90;;;;;;5053227;28;20771;-63
2022/01/24 01:30:46;;;;;;;7.68;1.45;;;2.10;99.90;;;;;;5053484;28;20036;-63
2022/01/24 01:33:35;;;;;;;0.20;0.20;;;1.90;99.90;;;;;;5068731;28;20036;-62
2022/01/24 01:36:11;;;;;;;0.10;0.10;;;1.90;99.90;;;;;;5053423;28;20095;-63
2022/01/24 01:39:17;;;;;;;0.10;0.10;;;1.90;99.90;;;;;;5052336;28;20477;-62
2022/01/24 01:55:37;;;;;;;1.20;1.13;;;1.60;99.90;;;;;;5051774;28;20045;-62
2022/01/24 01:58:15;;;;;;;0.10;0.10;;;1.60;99.90;;;;;;5052767;28;20091;-63
2022/01/24 02:00:58;;;;;;;0.50;0.50;;;1.70;99.90;;;;;;5051544;28;20039;-62
2022/01/24 02:03:25;;;;;;;0.10;0.10;;;1.70;99.90;;;;;;5051928;28;20033;-63
2022/01/24 02:05:51;;;;;;;0.10;0.10;;;1.80;99.90;;;;;;5052507;28;20025;-64
2022/01/24 02:08:18;;;;;;;0.50;0.50;;;1.70;99.90;;;;;;5052369;28;20056;-63
2022/01/24 02:10:44;;;;;;;0.10;0.10;;;1.70;99.90;;;;;;5052940;28;20501;-63
2022/01/24 02:13:12;;;;;;;0.10;0.10;;;1.70;99.90;;;;;;5067834;28;20037;-63
2022/01/24 02:18:24;;;;;;;0.43;0.43;;;1.70;99.90;;;;;;5052216;28;20029;-62
2022/01/24 02:25:58;;;;;;;0.10;0.10;;;1.70;99.90;;;;;;5051132;28;20040;-62
2022/01/24 02:28:26;;;;;;;0.10;0.10;;;1.70;99.90;;;;;;5051227;28;20043;-62
2022/01/24 02:33:19;;;;;;;1.42;1.33;;;1.80;99.90;;;;;;5052422;28;20478;-62
2022/01/24 02:35:46;;;;;;;0.00;0.00;;;1.80;99.90;;;;;;5050780;28;20516;-62
2022/01/24 02:49:13;;;;;;;0.10;0.10;;;1.80;99.90;;;;;;5051838;28;20047;-62
2022/01/24 02:54:06;;;;;;;0.30;0.30;;;1.90;99.90;;;;;;5051442;28;20040;-62
2022/01/24 02:56:32;;;;;;;0.10;0.10;;;1.80;99.90;;;;;;5050614;28;20079;-63
2022/01/24 02:58:58;;;;;;;0.10;0.10;;;1.80;99.90;;;;;;5051683;28;20783;-63
2022/01/24 03:01:23;;;;;;;0.77;0.40;;;1.90;99.90;;;;;;5067413;28;20470;-62
2022/01/24 03:03:49;;;;;;;28.55;2.28;;;1.90;99.90;;;;;;5051922;28;20465;-62
2022/01/24 03:06:15;;;;;;;0.10;0.10;;;1.90;99.90;;;;;;5051420;28;20064;-62
2022/01/24 03:08:41;;;;;;;0.35;0.35;;;1.80;99.90;;;;;;5051681;28;20037;-63
2022/01/24 03:11:08;;;;;;;0.20;0.20;;;1.80;99.90;;;;;;5050351;28;20029;-62
2022/01/24 03:13:34;;;;;;;0.30;0.30;;;1.80;99.90;;;;;;5051562;28;20036;-62
2022/01/24 03:16:04;;;;;;;0.10;0.10;;;1.90;99.90;;;;;;5051686;28;20037;-63
2022/01/24 03:18:32;;;;;;;0.20;0.20;;;1.80;99.90;;;;;;5050418;28;20060;-63
2022/01/24 03:20:57;;;;;;;0.10;0.10;;;1.80;99.90;;;;;;5051285;28;20029;-63
2022/01/24 03:23:25;;;;;;;0.10;0.10;;;1.80;99.90;;;;;;5051460;28;20056;-63
2022/01/24 03:25:51;;;;;;;0.10;0.10;;;1.80;99.90;;;;;;5050486;28;20017;-63
2022/01/24 03:28:17;;;;;;;0.30;0.30;;;1.80;99.90;;;;;;5051320;28;20033;-63
2022/01/24 03:30:45;;;;;;;0.60;0.60;;;1.80;99.90;;;;;;5050150;28;20040;-64
2022/01/24 03:33:11;;;;;;;0.10;0.10;;;1.80;99.90;;;;;;5050210;28;20026;-63
2022/01/24 03:35:40;;;;;;;0.10;0.10;;;1.70;99.90;;;;;;5050416;28;20056;-63
2022/01/24 03:38:06;;;;;;;0.73;0.68;;;1.70;99.90;;;;;;5050338;28;20355;-63
2022/01/24 03:40:32;;;;;;;0.10;0.10;;;1.70;99.90;;;;;;5051376;28;20025;-63
2022/01/24 03:42:58;;;;;;;0.70;0.65;;;1.70;99.90;;;;;;5051392;28;20120;-62
2022/01/24 03:45:37;;;;;;;1.00;0.43;;;1.80;99.90;;;;;;5052651;28;20042;-62
2022/01/24 03:48:11;;;;;;;0.10;0.10;;;1.80;99.90;;;;;;5054051;28;20048;-62
2022/01/24 03:50:38;;;;;;;0.10;0.10;;;1.80;99.90;;;;;;5054994;28;20481;-63
2022/01/24 03:53:04;;;;;;;0.10;0.10;;;1.90;99.90;;;;;;5054135;28;20094;-62
2022/01/24 03:55:33;;;;;;;0.13;0.13;;;1.90;99.90;;;;;;5055288;28;20498;-62
2022/01/24 03:57:59;;;;;;;0.10;0.10;;;1.90;99.90;;;;;;5054034;28;20041;-62
2022/01/24 04:00:25;;;;;;;0.10;0.10;;;1.90;99.90;;;;;;5070292;28;20076;-62
2022/01/24 04:02:50;;;;;;;0.20;0.20;;;2.00;99.90;;;;;;5055324;28;20067;-62
2022/01/24 04:05:16;;;;;;;0.10;0.10;;;2.00;99.90;;;;;;5055084;28;20448;-62
2022/01/24 04:07:42;;;;;;;0.10;0.10;;;2.00;99.90;;;;;;5055055;28;20389;-62
2022/01/24 04:10:09;;;;;;;0.10;0.10;;;2.00;99.90;;;;;;5054850;28;20601;-62
2022/01/24 04:12:38;;;;;;;0.10;0.10;;;2.10;99.90;;;;;;5053351;28;20482;-62
2022/01/24 04:15:13;;;;;;;0.10;0.10;;;2.10;99.90;;;;;;5054781;28;20045;-63
2022/01/24 04:17:45;;;;;;;0.10;0.10;;;2.30;99.90;;;;;;5038097;28;20041;-62
2022/01/24 04:23:00;;;;;;;0.10;0.10;;;2.40;99.90;;;;;;5054470;28;20025;-63
2022/01/24 04:25:25;;;;;;;0.10;0.10;;;2.30;99.90;;;;;;5054595;28;20037;-62
2022/01/24 04:27:54;;;;;;;0.10;0.10;;;2.40;99.90;;;;;;5054621;28;20032;-62
2022/01/24 04:30:22;;;;;;;0.40;0.40;;;2.40;99.90;;;;;;5054565;28;20525;-62
2022/01/24 04:32:48;;;;;;;0.25;0.25;;;2.30;99.90;;;;;;5054280;28;20393;-63
2022/01/24 04:35:14;;;;;;;0.10;0.10;;;2.20;99.90;;;;;;5053258;28;20079;-63
2022/01/24 04:37:40;;;;;;;0.10;0.10;;;2.30;99.90;;;;;;5053294;28;20029;-63
2022/01/24 04:40:07;;;;;;;0.10;0.10;;;2.30;99.90;;;;;;5054419;28;20028;-63
2022/01/24 04:42:50;;;;;;;0.30;0.30;;;2.30;99.90;;;;;;5054251;28;20569;-62
2022/01/24 04:45:38;;;;;;;0.10;0.10;;;2.40;99.90;;;;;;5054220;28;20033;-62
2022/01/24 04:53:13;;;;;;;0.10;0.10;;;2.30;99.90;;;;;;5052622;28;20440;-62
2022/01/24 04:55:38;;;;;;;0.60;0.57;;;2.30;99.90;;;;;;5053975;28;20033;-62
2022/01/24 04:58:04;;;;;;;1.20;0.40;;;2.30;99.90;;;;;;5051019;28;20378;-62
2022/01/24 05:00:30;;;;;;;0.10;0.10;;;2.20;99.90;;;;;;5054057;28;20087;-62
2022/01/24 05:02:56;;;;;;;0.20;0.20;;;2.20;99.90;;;;;;5071033;28;20021;-63
2022/01/24 05:05:24;;;;;;;0.10;0.10;;;2.20;99.90;;;;;;5072468;28;20028;-63
2022/01/24 05:07:51;;;;;;;0.10;0.10;;;2.10;99.90;;;;;;5073984;28;20028;-64
2022/01/24 05:10:31;;;;;;;0.63;0.63;;;2.10;99.90;;;;;;5073657;28;20040;-63
2022/01/24 05:21:40;;;;;;;0.47;0.47;;;2.20;99.90;;;;;;5073570;28;20091;-62
2022/01/24 05:24:08;;;;;;;0.38;0.38;;;2.20;99.90;;;;;;5073452;28;20056;-63
2022/01/24 05:26:34;;;;;;;0.95;0.90;;;2.20;99.90;;;;;;5073647;28;20156;-61
2022/01/24 05:29:00;;;;;;;0.10;0.10;;;2.30;99.90;;;;;;5073366;28;20568;-62
2022/01/24 05:31:25;;;;;;;0.10;0.10;;;2.30;99.90;;;;;;5072977;28;20059;-62
2022/01/24 05:33:51;;;;;;;0.13;0.13;;;2.20;99.90;;;;;;5072283;28;20420;-62
2022/01/24 05:36:17;;;;;;;0.10;0.10;;;2.20;99.90;;;;;;5071626;28;20032;-62
2022/01/24 05:38:43;;;;;;;7.10;4.70;;;2.20;99.90;;;;;;5073237;28;20021;-62
2022/01/24 05:41:08;;;;;;;4.82;3.78;;;2.10;99.90;;;;;;5072854;28;20107;-62
2022/01/24 05:43:35;;;;;;;8.13;6.10;;;2.00;99.90;;;;;;5073253;28;20107;-63
2022/01/24 05:46:01;;;;;;;9.95;2.55;;;2.00;99.90;;;;;;5088846;28;20036;-62
2022/01/24 05:48:27;;;;;;;3.33;1.38;;;2.00;99.90;;;;;;5073134;28;20028;-63
2022/01/24 05:50:53;;;;;;;14.80;1.95;;;1.90;99.90;;;;;;5073073;28;20029;-62
2022/01/24 05:53:19;;;;;;;1.63;1.55;;;1.90;99.90;;;;;;5072777;28;20111;-61
2022/01/24 05:55:44;;;;;;;4.43;3.33;;;1.90;99.90;;;;;;5072724;28;20431;-61
2022/01/24 05:58:10;;;;;;;0.88;0.88;;;1.80;99.90;;;;;;5072538;28;20032;-61
2022/01/24 06:00:36;;;;;;;0.10;0.10;;;1.80;99.90;;;;;;5072892;28;20035;-61
2022/01/24 06:03:02;;;;;;;0.05;0.05;;;1.80;99.90;;;;;;5072986;28;20628;-62
2022/01/24 06:05:28;;;;;;;0.10;0.10;;;1.70;99.90;;;;;;5072589;28;20044;-63
2022/01/24 06:07:54;;;;;;;0.30;0.30;;;1.60;99.90;;;;;;5072375;28;20122;-61
2022/01/24 06:10:20;;;;;;;1.13;0.85;;;1.60;99.90;;;;;;5072704;28;20037;-62
2022/01/24 06:12:46;;;;;;;0.10;0.10;;;1.70;99.90;;;;;;5072668;28;20625;-62
2022/01/24 06:15:12;;;;;;;0.10;0.10;;;1.60;99.90;;;;;;5072389;28;20116;-63
2022/01/24 06:17:38;;;;;;;0.10;0.10;;;1.60;99.90;;;;;;5072583;28;20029;-63
2022/01/24 06:20:06;;;;;;;0.30;0.30;;;1.60;99.90;;;;;;5072269;28;20052;-63
2022/01/24 06:22:32;;;;;;;0.10;0.10;;;1.60;99.90;;;;;;5072402;28;20493;-63
2022/01/24 06:24:58;;;;;;;0.20;0.20;;;1.50;99.90;;;;;;5071157;28;20029;-62
2022/01/24 06:27:23;;;;;;;5.90;1.92;;;1.50;99.90;;;;;;5072133;28;20029;-62
2022/01/24 06:29:49;;;;;;;2.28;0.93;;;1.50;99.90;;;;;;5072273;28;20032;-62
2022/01/24 06:32:15;;;;;;;0.40;0.40;;;1.40;99.90;;;;;;5070518;28;20113;-62
2022/01/24 06:34:41;;;;;;;0.10;0.10;;;1.40;99.90;;;;;;5070504;28;20027;-63
2022/01/24 06:37:07;;;;;;;0.32;0.32;;;1.40;99.90;;;;;;5072017;28;20089;-63
2022/01/24 06:39:33;;;;;;;0.50;0.50;;;1.40;99.90;;;;;;5072155;28;20120;-63
2022/01/24 06:42:31;;;;;;;0.52;0.52;;;1.40;99.90;;;;;;5053961;28;20135;-62
2022/01/24 06:44:53;;;;;;;0.47;0.47;;;1.40;99.90;;;;;;5069728;28;20397;-63
2022/01/24 06:47:20;;;;;;;0.10;0.10;;;1.40;99.90;;;;;;5071580;28;20546;-63
2022/01/24 06:49:45;;;;;;;0.90;0.90;;;1.40;99.90;;;;;;5070869;28;20040;-63
2022/01/24 06:52:13;;;;;;;0.08;0.08;;;1.30;99.90;;;;;;5071445;28;20027;-61
2022/01/24 06:54:41;;;;;;;3.92;2.17;;;1.30;99.90;;;;;;5071964;28;20377;-63
2022/01/24 06:57:11;;;;;;;0.13;0.13;;;1.20;99.90;;;;;;5071787;28;20137;-63
2022/01/24 06:59:41;;;;;;;8.45;0.77;;;1.20;99.90;;;;;;5071806;28;20060;-62
2022/01/24 07:02:12;;;;;;;0.10;0.10;;;1.20;99.90;;;;;;5053618;28;20040;-63
2022/01/24 07:04:39;;;;;;;0.25;0.25;;;1.30;99.90;;;;;;5071957;28;20377;-62
2022/01/24 07:07:11;;;;;;;0.10;0.10;;;1.40;99.90;;;;;;5070094;28;20130;-62
2022/01/24 07:09:38;;;;;;;0.10;0.10;;;1.40;99.90;;;;;;5071603;28;20028;-63
2022/01/24 07:12:05;;;;;;;0.10;0.10;;;1.40;99.90;;;;;;5054967;28;20037;-63
2022/01/24 07:14:31;;;;;;;0.30;0.30;;;1.30;99.90;;;;;;5051241;28;20060;-62
2022/01/24 07:19:35;;;;;;;0.10;0.10;;;1.30;99.90;;;;;;5051197;28;20053;-62
2022/01/24 07:22:04;;;;;;;0.10;0.10;;;1.30;99.90;;;;;;5051276;28;20370;-61
2022/01/24 07:24:30;;;;;;;0.73;0.47;;;1.30;99.90;;;;;;5050161;28;20052;-62
2022/01/24 07:26:56;;;;;;;0.10;0.10;;;1.20;99.90;;;;;;5051626;28;20029;-61
2022/01/24 07:29:22;;;;;;;0.50;0.32;;;1.20;99.90;;;;;;5051412;28;20064;-63
2022/01/24 07:31:49;;;;;;;0.10;0.10;;;1.30;99.90;;;;;;5051053;28;20091;-62
2022/01/24 07:34:16;;;;;;;0.45;0.45;;;1.40;99.90;;;;;;5050922;28;20420;-61
2022/01/24 07:36:45;;;;;;;0.20;0.20;;;1.40;99.90;;;;;;5050343;28;20033;-61
2022/01/24 07:39:11;;;;;;;0.20;0.20;;;1.40;99.90;;;;;;5051022;28;20108;-62
2022/01/24 07:41:43;;;;;;;3.00;1.85;;;1.50;99.90;;;;;;5051495;28;20029;-63
2022/01/24 07:44:10;;;;;;;0.10;0.10;;;1.50;99.90;;;;;;5050996;28;20026;-63
2022/01/24 07:46:36;;;;;;;0.10;0.10;;;1.50;99.90;;;;;;5051347;28;20029;-63
2022/01/24 07:49:04;;;;;;;0.13;0.13;;;1.50;99.90;;;;;;5051277;28;20033;-63
2022/01/24 07:51:30;;;;;;;0.10;0.10;;;1.50;99.90;;;;;;5066678;28;20044;-63
2022/01/24 07:53:56;;;;;;;0.20;0.20;;;1.60;99.90;;;;;;5049687;28;20045;-62
2022/01/24 07:56:21;;;;;;;0.20;0.20;;;1.60;99.90;;;;;;5051061;28;20060;-62
2022/01/24 07:58:47;;;;;;;1.80;1.70;;;1.70;99.90;;;;;;5050001;28;20087;-62
2022/01/24 08:01:15;;;;;;;0.20;0.20;;;1.70;99.90;;;;;;5051046;28;20059;-63
2022/01/24 08:03:42;;;;;;;0.52;0.52;;;1.70;99.90;;;;;;5049922;28;20029;-62
2022/01/24 08:06:08;;;;;;;0.40;0.40;;;1.80;99.90;;;;;;5051231;28;20025;-63
2022/01/24 08:08:34;;;;;;;0.10;0.10;;;1.80;99.90;;;;;;5050971;28;20033;-62
2022/01/24 08:11:00;;;;;;;0.73;0.73;;;1.80;99.90;;;;;;5051099;28;20040;-62
2022/01/24 08:13:26;;;;;;;0.10;0.10;;;1.90;99.90;;;;;;5050667;28;20033;-62
2022/01/24 08:15:52;;;;;;;0.22;0.22;;;1.90;99.90;;;;;;5050515;28;20032;-62
2022/01/24 08:18:18;;;;;;;0.38;0.38;;;1.90;99.90;;;;;;5050679;28;20029;-62
2022/01/24 08:20:43;;;;;;;0.10;0.10;;;1.90;99.90;;;;;;5051048;28;20068;-62
2022/01/24 08:23:11;;;;;;;0.75;0.75;;;2.00;99.90;;;;;;5050871;28;20075;-62
2022/01/24 08:25:37;;;;;;;0.20;0.20;;;2.00;99.90;;;;;;5050785;28;20029;-62
2022/01/24 08:28:04;;;;;;;0.10;0.10;;;2.10;99.90;;;;;;5049730;28;20033;-64
2022/01/24 08:30:30;;;;;;;0.10;0.10;;;2.10;99.90;;;;;;5050729;28;20481;-62
2022/01/24 08:32:56;;;;;;;0.30;0.30;;;2.20;99.90;;;;;;5053970;28;20063;-62
2022/01/24 08:35:23;;;;;;;3.30;2.65;;;2.40;99.90;;;;;;5054237;28;20127;-62
2022/01/24 08:37:50;;;;;;;0.20;0.20;;;2.40;99.90;;;;;;5054290;28;20029;-62
2022/01/24 08:40:27;;;;;;;0.40;0.40;;;2.40;99.90;;;;;;5054324;28;20120;-62
2022/01/24 08:43:05;;;;;;;0.43;0.43;;;2.40;99.90;;;;;;5054327;28;20102;-62
2022/01/24 08:45:58;;;;;;;0.10;0.10;;;2.50;99.90;;;;;;5053962;28;20033;-62
2022/01/24 08:48:25;;;;;;;0.28;0.28;;;2.60;99.90;;;;;;5069194;28;20068;-62
2022/01/24 08:50:54;;;;;;;0.43;0.43;;;2.70;99.90;;;;;;5053956;28;20040;-62
2022/01/24 08:53:20;;;;;;;0.10;0.10;;;2.70;99.90;;;;;;5069188;28;20029;-62
2022/01/24 08:55:46;;;;;;;0.05;0.05;;;2.80;99.90;;;;;;5053763;28;20087;-62
2022/01/24 08:58:14;;;;;;;0.65;0.65;;;2.90;99.90;;;;;;5053844;28;20029;-62
2022/01/24 09:00:43;;;;;;;0.10;0.10;;;3.10;99.90;;;;;;5052881;28;20087;-61
2022/01/24 09:03:11;;;;;;;0.88;0.35;;;3.30;99.90;;;;;;5054106;28;20074;-62
2022/01/24 09:05:41;;;;;;;0.20;0.20;;;3.40;99.90;;;;;;5053885;28;20164;-62
2022/01/24 09:08:08;;;;;;;0.43;0.43;;;3.50;99.90;;;;;;5053523;28;20371;-62
2022/01/24 09:10:39;;;;;;;0.10;0.10;;;3.60;99.90;;;;;;5052229;28;20037;-62
2022/01/24 09:13:06;;;;;;;0.05;0.05;;;3.80;99.90;;;;;;5069211;28;20035;-62
2022/01/24 09:15:32;;;;;;;0.10;0.10;;;3.90;99.90;;;;;;5073258;28;20757;-62
2022/01/24 09:17:57;;;;;;;0.20;0.20;;;4.10;99.90;;;;;;5072057;28;20106;-63
2022/01/24 09:20:23;;;;;;;0.10;0.10;;;4.10;99.90;;;;;;5055647;28;20095;-63
2022/01/24 09:22:49;;;;;;;4.57;0.90;;;4.20;99.90;;;;;;5052219;28;20035;-63
2022/01/24 09:25:20;;;;;;;18.10;1.70;;;4.30;99.90;;;;;;5053438;28;20037;-61
2022/01/24 09:27:47;;;;;;;0.10;0.10;;;4.40;99.90;;;;;;5052441;28;20029;-62
2022/01/24 09:30:17;;;;;;;0.20;0.20;;;4.50;99.90;;;;;;5053441;28;20124;-63
2022/01/24 09:32:43;;;;;;;0.32;0.32;;;4.60;99.90;;;;;;5053007;28;20055;-63
2022/01/24 09:35:12;;;;;;;5.22;0.80;;;4.60;99.90;;;;;;5053092;28;20117;-63
2022/01/24 09:37:39;;;;;;;0.00;0.00;;;4.70;99.90;;;;;;5053321;28;20021;-62
2022/01/24 09:40:07;;;;;;;0.45;0.20;;;4.80;99.90;;;;;;5053345;28;20117;-62
2022/01/24 09:42:33;;;;;;;0.10;0.10;;;4.90;99.90;;;;;;5052268;28;20733;-62
2022/01/24 09:45:00;;;;;;;0.63;0.63;;;5.00;99.90;;;;;;5052998;28;20039;-63
2022/01/24 09:47:26;;;;;;;0.10;0.10;;;5.10;99.90;;;;;;5052966;28;20071;-63
2022/01/24 09:49:52;;;;;;;0.00;0.00;;;5.20;99.90;;;;;;5053216;28;20378;-63
2022/01/24 09:52:18;;;;;;;0.10;0.10;;;5.40;99.90;;;;;;5052975;28;20040;-63
2022/01/24 09:54:45;;;;;;;0.20;0.20;;;5.50;99.90;;;;;;5052896;28;20045;-63
2022/01/24 09:57:12;;;;;;;0.10;0.10;;;5.60;99.90;;;;;;5035408;28;20079;-62
2022/01/24 09:59:38;;;;;;;0.10;0.10;;;5.70;99.90;;;;;;5051392;28;20033;-63
2022/01/24 10:02:04;;;;;;;0.30;0.30;;;5.70;99.90;;;;;;5052767;28;20577;-62
2022/01/24 10:04:31;;;;;;;0.35;0.35;;;5.70;99.90;;;;;;5052596;28;20673;-62
2022/01/24 10:07:15;;;;;;;0.10;0.10;;;5.80;99.90;;;;;;5051348;28;20040;-61
2022/01/24 10:09:45;;;;;;;0.08;0.08;;;5.90;99.90;;;;;;5052746;28;20037;-61
2022/01/24 10:16:24;;;;;;;0.65;0.65;;;5.80;99.90;;;;;;5052430;28;20428;-61
2022/01/24 10:18:09;;;;;;;0.10;0.10;;;5.80;99.90;;;;;;5052304;28;20029;-61
2022/01/24 10:20:43;;;;;;;0.22;0.22;;;5.70;99.90;;;;;;5052342;28;20037;-61
2022/01/24 10:23:26;;;;;;;0.10;0.10;;;5.80;99.90;;;;;;5052367;28;20115;-62
2022/01/24 10:26:04;;;;;;;2.00;1.50;;;5.90;99.90;;;;;;5051045;28;20393;-61
2022/01/24 10:28:37;;;;;;;2.20;1.65;;;6.00;99.90;;;;;;5051948;28;20033;-61
2022/01/24 10:31:09;;;;;;;0.10;0.10;;;5.90;99.90;;;;;;5051941;28;20052;-61
2022/01/24 10:33:52;;;;;;;0.15;0.15;;;6.10;99.90;;;;;;5050714;28;20051;-63
2022/01/24 10:36:40;;;;;;;0.52;0.50;;;6.10;99.90;;;;;;5051759;28;20028;-62
2022/01/24 10:39:15;;;;;;;0.10;0.10;;;6.40;99.90;;;;;;5051983;28;20043;-63
2022/01/24 10:44:33;;;;;;;0.05;0.05;;;7.70;99.90;;;;;;5051668;28;20029;-64
2022/01/24 10:47:28;;;;;;;0.47;0.47;;;7.40;99.90;;;;;;5051964;28;20032;-63
2022/01/24 10:49:56;;;;;;;0.63;0.63;;;7.10;99.90;;;;;;5051913;28;20478;-64
2022/01/24 10:52:29;;;;;;;0.00;0.00;;;7.00;99.90;;;;;;5050620;28;20037;-63
2022/01/24 10:55:18;;;;;;;1.55;0.55;;;7.00;99.90;;;;;;5049734;28;20043;-63
2022/01/24 10:57:48;;;;;;;0.00;0.00;;;6.80;99.90;;;;;;5051754;28;20090;-63
2022/01/24 11:00:24;;;;;;;0.00;0.00;;;7.20;99.90;;;;;;5050741;28;20035;-64
2022/01/24 11:02:55;;;;;;;0.00;0.00;;;7.70;99.90;;;;;;5061662;28;20101;-63
2022/01/24 11:05:27;;;;;;;0.23;0.23;;;8.70;99.90;;;;;;5071560;28;20029;-61
2022/01/24 11:08:08;;;;;;;5.93;2.05;;;8.60;99.90;;;;;;5071594;28;20032;-63
2022/01/24 11:10:41;;;;;;;0.00;0.00;;;9.10;99.90;;;;;;5070341;28;20032;-63
2022/01/24 11:13:08;;;;;;;0.65;0.38;;;9.30;99.90;;;;;;5069775;28;20559;-62
2022/01/24 11:15:38;;;;;;;0.00;0.00;;;8.50;99.90;;;;;;5071382;28;20033;-62
2022/01/24 11:18:05;;;;;;;1.95;1.10;;;8.50;99.90;;;;;;5071744;28;20020;-63
2022/01/24 11:20:35;;;;;;;3.13;2.65;;;8.90;99.90;;;;;;5070206;28;20041;-63
2022/01/24 11:23:06;;;;;;;0.82;0.82;;;8.70;99.90;;;;;;5071485;28;20040;-62
2022/01/24 11:25:39;;;;;;;0.00;0.00;;;9.10;99.90;;;;;;5071348;28;20381;-63
2022/01/24 11:28:07;;;;;;;0.10;0.10;;;9.80;99.90;;;;;;5070441;28;20033;-63
2022/01/24 11:30:59;;;;;;;0.00;0.00;;;10.80;99.90;;;;;;5071207;28;20039;-63
2022/01/24 11:33:55;;;;;;;0.32;0.20;;;11.00;99.90;;;;;;5070195;28;20504;-62
2022/01/24 11:36:42;;;;;;;0.45;0.45;;;9.20;99.90;;;;;;5070184;28;20118;-63
2022/01/24 11:39:08;;;;;;;0.00;0.00;;;8.80;99.90;;;;;;5070370;28;20028;-62
2022/01/24 11:41:38;;;;;;;0.13;0.13;;;8.80;99.90;;;;;;5070965;28;20112;-63
2022/01/24 11:44:16;;;;;;;0.87;0.87;;;8.60;99.90;;;;;;5070174;28;20538;-62
2022/01/24 11:46:55;;;;;;;0.28;0.28;;;9.20;99.90;;;;;;5069693;28;20050;-63
2022/01/24 11:49:25;;;;;;;0.00;0.00;;;9.30;99.90;;;;;;5071723;28;20036;-62
2022/01/24 11:52:19;;;;;;;0.00;0.00;;;9.10;99.90;;;;;;5071127;28;20477;-62
2022/01/24 11:55:01;;;;;;;0.00;0.00;;;9.70;99.90;;;;;;5071338;28;20436;-62
2022/01/24 11:57:50;;;;;;;0.00;0.00;;;11.20;99.90;;;;;;5070936;28;20111;-63
2022/01/24 12:00:33;;;;;;;2.00;1.60;;;11.20;99.80;;;;;;5069914;28;20556;-62
2022/01/24 12:03:13;;;;;;;0.20;0.20;;;10.50;99.90;;;;;;5069862;28;20033;-63
2022/01/24 12:05:48;;;;;;;0.00;0.00;;;10.90;99.90;;;;;;5070087;28;20056;-64
2022/01/24 12:08:42;;;;;;;0.00;0.00;;;10.80;99.90;;;;;;5073739;28;20032;-64
2022/01/24 12:11:24;;;;;;;0.57;0.22;;;12.10;97.70;;;;;;5075142;28;20036;-64
2022/01/24 12:14:01;;;;;;;1.13;0.73;;;13.20;95.30;;;;;;5073593;28;20115;-64
2022/01/24 12:16:41;;;;;;;1.17;0.70;;;12.60;95.70;;;;;;5074720;28;20060;-64
2022/01/24 12:19:08;;;;;;;0.55;0.55;;;10.30;98.70;;;;;;5074852;28;20036;-63
2022/01/24 12:21:41;;;;;;;1.77;1.55;;;9.30;99.90;;;;;;5074226;28;20115;-63
2022/01/24 12:24:13;;;;;;;0.08;0.08;;;10.30;99.90;;;;;;5074477;28;20027;-63
2022/01/24 12:26:47;;;;;;;0.00;0.00;;;10.30;99.90;;;;;;5074058;28;20040;-63
2022/01/24 12:29:16;;;;;;;0.00;0.00;;;10.90;99.90;;;;;;5073529;28;20051;-63
2022/01/24 12:31:58;;;;;;;0.00;0.00;;;10.60;99.80;;;;;;5073702;28;20041;-63
2022/01/24 12:34:36;;;;;;;0.10;0.10;;;9.70;99.90;;;;;;5073023;28;20035;-64
2022/01/24 12:37:08;;;;;;;0.10;0.10;;;9.50;99.90;;;;;;5074553;28;20051;-62
2022/01/24 12:39:53;;;;;;;0.10;0.10;;;10.40;99.70;;;;;;5074430;28;20536;-62
2022/01/24 12:42:42;;;;;;;0.32;0.32;;;10.70;99.70;;;;;;5073550;28;20048;-62
2022/01/24 12:48:18;;;;;;;0.20;0.20;;;9.50;99.90;;;;;;5053985;28;20072;-63
2022/01/24 12:50:48;;;;;;;0.00;0.00;;;10.20;99.90;;;;;;5053793;28;20441;-62
2022/01/24 12:53:20;;;;;;;0.00;0.00;;;10.00;99.90;;;;;;5054234;28;20123;-61
2022/01/24 12:56:04;;;;;;;0.00;0.00;;;9.70;99.90;;;;;;5054008;28;20044;-62
2022/01/24 12:58:37;;;;;;;0.20;0.20;;;10.30;99.90;;;;;;5053675;28;20033;-63
2022/01/24 13:01:24;;;;;;;0.10;0.10;;;10.00;99.90;;;;;;5064360;28;20063;-63
2022/01/24 13:04:10;;;;;;;0.00;0.00;;;10.40;99.90;;;;;;5062408;28;20440;-62
2022/01/24 13:06:40;;;;;;;0.17;0.13;;;10.50;99.50;;;;;;5053752;28;20126;-63
2022/01/24 13:09:19;;;;;;;0.00;0.00;;;10.20;99.90;;;;;;5052229;28;20370;-63
2022/01/24 13:11:54;;;;;;;0.50;0.43;;;11.20;99.60;;;;;;5067394;28;20546;-64
2022/01/24 13:14:36;;;;;;;0.00;0.00;;;11.40;98.70;;;;;;5073624;28;20032;-63
2022/01/24 13:23:02;;;;;;;0.68;0.38;;;12.20;97.90;;;;;;5071982;28;20393;-62
2022/01/24 13:25:32;;;;;;;0.08;0.08;;;11.60;95.80;;;;;;5073589;28;20040;-62
2022/01/24 13:28:12;;;;;;;0.15;0.15;;;10.20;98.40;;;;;;5073713;28;20123;-62
2022/01/24 13:30:41;;;;;;;0.30;0.30;;;9.30;99.90;;;;;;5073413;28;20037;-63
2022/01/24 13:33:15;;;;;;;0.10;0.10;;;9.70;99.90;;;;;;5073134;28;20481;-62
2022/01/24 13:35:51;;;;;;;4.90;2.10;;;9.60;99.90;;;;;;5073203;28;20052;-63
2022/01/24 13:38:38;;;;;;;0.00;0.00;;;9.60;99.90;;;;;;5073561;28;20504;-64
2022/01/24 13:41:20;;;;;;;0.00;0.00;;;10.60;99.90;;;;;;5073381;28;20049;-62
2022/01/24 13:43:49;;;;;;;0.00;0.00;;;11.50;99.60;;;;;;5071979;28;20138;-63
2022/01/24 13:46:16;;;;;;;1.75;0.88;;;12.00;97.80;;;;;;5073113;28;20025;-64
2022/01/24 13:48:47;;;;;;;0.00;0.00;;;11.60;96.30;;;;;;5071586;28;20032;-64
2022/01/24 13:51:24;;;;;;;0.03;0.03;;;10.50;99.90;;;;;;5073197;28;20135;-64
2022/01/24 13:53:57;;;;;;;0.03;0.03;;;11.20;98.90;;;;;;5073071;28;20033;-63
2022/01/24 13:56:35;;;;;;;0.22;0.22;;;11.90;97.40;;;;;;5072788;28;20039;-62
2022/01/24 13:59:31;;;;;;;0.32;0.32;;;11.90;96.20;;;;;;5071392;28;20041;-63
2022/01/24 14:02:22;;;;;;;0.63;0.63;;;11.40;96.60;;;;;;5071190;28;20028;-63
2022/01/24 14:05:02;;;;;;;0.20;0.20;;;10.20;98.90;;;;;;5072600;28;20036;-63
2022/01/24 14:07:31;;;;;;;0.00;0.00;;;11.80;98.20;;;;;;5072211;28;20771;-62
2022/01/24 14:10:05;;;;;;;0.05;0.05;;;11.60;97.10;;;;;;5071263;28;20032;-64
2022/01/24 14:12:54;;;;;;;0.00;0.00;;;11.20;99.90;;;;;;5072172;28;20461;-64
2022/01/24 14:20:46;;;;;;;3.25;0.70;;;11.90;99.30;;;;;;5070614;28;20032;-64
2022/01/24 14:23:22;;;;;;;1.02;1.02;;;12.70;99.20;;;;;;5072182;28;20029;-64
2022/01/24 14:25:51;;;;;;;0.52;0.52;;;12.80;97.60;;;;;;5072380;28;20044;-63
2022/01/24 14:28:22;;;;;;;0.08;0.08;;;12.40;95.80;;;;;;5070835;28;20036;-64
2022/01/24 14:30:48;;;;;;;0.00;0.00;;;11.70;98.00;;;;;;5071699;28;20056;-63
2022/01/24 14:33:28;;;;;;;8.88;1.65;;;12.70;96.30;;;;;;5070538;28;20139;-63
2022/01/24 14:35:57;;;;;;;0.52;0.52;;;12.00;96.70;;;;;;5071839;28;20028;-62
2022/01/24 14:38:28;;;;;;;5.28;2.63;;;11.90;98.10;;;;;;5072087;28;20031;-63
2022/01/24 14:40:56;;;;;;;0.03;0.03;;;11.90;97.80;;;;;;5071862;28;20542;-63
2022/01/24 14:46:15;;;;;;;5.13;1.73;;;12.90;94.90;;;;;;5071855;28;20656;-64
2022/01/24 14:48:51;;;;;;;3.42;1.85;;;13.30;94.30;;;;;;5071806;28;20028;-63
2022/01/24 14:51:28;;;;;;;0.00;0.00;;;12.70;93.90;;;;;;5071962;28;20025;-63
2022/01/24 14:53:57;;;;;;;0.10;0.10;;;11.70;95.50;;;;;;5071930;28;20029;-64
2022/01/24 14:56:24;;;;;;;0.20;0.20;;;10.60;98.20;;;;;;5071640;28;20036;-63
2022/01/24 14:58:50;;;;;;;0.00;0.00;;;10.90;98.40;;;;;;5071606;28;20032;-63
2022/01/24 15:01:19;;;;;;;0.00;0.00;;;10.40;99.90;;;;;;5070524;28;20024;-63
2022/01/24 15:03:46;;;;;;;0.00;0.00;;;11.30;98.70;;;;;;5070213;28;20082;-63